sensor_id;sensor_type;location;lat;lon;timestamp;pressure;altitude;pressure_sealevel;temperature;humidity
8890;BME280;4481;43.406;24.454;2023-01-29T00:00:39;78579.03;;;-144.09;100.00
8890;BME280;4481;43.406;24.454;2023-01-29T00:03:06;78606.22;;;-144.09;100.00
8890;BME280;4481;43.406;24.454;2023-01-29T00:05:33;78597.88;;;-144.09;100.00
8890;BME280;4481;43.406;24.454;2023-01-29T00:08:00;78599.94;;;-144.09;100.00
8890;BME280;4481;43.406;24.454;2023-01-29T00:10:27;78602.03;;;-144.09;100.00
8890;BME280;4481;43.406;24.454;2023-01-29T00:12:53;78604.13;;;-144.09;100.00
8890;BME280;4481;43.406;24.454;2023-01-29T00:15:19;78620.84;;;-144.09;100.00
8890;BME280;4481;43.406;24.454;2023-01-29T00:17:45;78597.88;;;-144.09;100.00
8890;BME280;4481;43.406;24.454;2023-01-29T00:20:12;78608.31;;;-144.09;100.00
8890;BME280;4481;43.406;24.454;2023-01-29T00:22:38;78612.50;;;-144.09;100.00
8890;BME280;4481;43.406;24.454;2023-01-29T00:25:05;78614.59;;;-144.09;100.00
8890;BME280;4481;43.406;24.454;2023-01-29T00:27:32;78604.13;;;-144.09;100.00
8890;BME280;4481;43.406;24.454;2023-01-29T00:29:58;78614.59;;;-144.09;100.00
8890;BME280;4481;43.406;24.454;2023-01-29T00:32:37;78612.50;;;-144.09;100.00
8890;BME280;4481;43.406;24.454;2023-01-29T00:35:04;78612.50;;;-144.09;100.00
8890;BME280;4481;43.406;24.454;2023-01-29T00:37:31;78604.13;;;-144.09;100.00
8890;BME280;4481;43.406;24.454;2023-01-29T00:39:57;78631.31;;;-144.09;100.00
8890;BME280;4481;43.406;24.454;2023-01-29T00:42:23;78635.50;;;-144.09;100.00
8890;BME280;4481;43.406;24.454;2023-01-29T00:45:09;78648.03;;;-144.09;100.00
8890;BME280;4481;43.406;24.454;2023-01-29T00:47:35;78631.31;;;-144.09;100.00
8890;BME280;4481;43.406;24.454;2023-01-29T00:50:04;78643.84;;;-144.09;100.00
8890;BME280;4481;43.406;24.454;2023-01-29T00:52:32;78622.94;;;-144.09;100.00
8890;BME280;4481;43.406;24.454;2023-01-29T00:55:01;78629.22;;;-144.09;100.00
8890;BME280;4481;43.406;24.454;2023-01-29T00:57:29;78631.31;;;-144.09;100.00
8890;BME280;4481;43.406;24.454;2023-01-29T00:59:55;78631.31;;;-144.09;100.00
8890;BME280;4481;43.406;24.454;2023-01-29T01:02:22;78625.03;;;-144.09;100.00
8890;BME280;4481;43.406;24.454;2023-01-29T01:05:07;78637.59;;;-144.09;100.00
8890;BME280;4481;43.406;24.454;2023-01-29T01:07:41;78620.84;;;-144.09;100.00
8890;BME280;4481;43.406;24.454;2023-01-29T01:10:11;78614.59;;;-144.09;100.00
8890;BME280;4481;43.406;24.454;2023-01-29T01:12:47;78629.22;;;-144.09;100.00
8890;BME280;4481;43.406;24.454;2023-01-29T01:15:13;78618.78;;;-144.09;100.00
8890;BME280;4481;43.406;24.454;2023-01-29T01:17:39;78620.84;;;-144.09;100.00
8890;BME280;4481;43.406;24.454;2023-01-29T01:20:07;78627.13;;;-144.09;100.00
8890;BME280;4481;43.406;24.454;2023-01-29T01:22:33;78629.22;;;-144.09;100.00
8890;BME280;4481;43.406;24.454;2023-01-29T01:25:00;78637.59;;;-144.09;100.00
8890;BME280;4481;43.406;24.454;2023-01-29T01:27:27;78637.59;;;-144.09;100.00
8890;BME280;4481;43.406;24.454;2023-01-29T01:29:53;78637.59;;;-144.09;100.00
8890;BME280;4481;43.406;24.454;2023-01-29T01:32:19;78635.50;;;-144.09;100.00
8890;BME280;4481;43.406;24.454;2023-01-29T01:34:45;78635.50;;;-144.09;100.00
8890;BME280;4481;43.406;24.454;2023-01-29T01:37:11;78625.03;;;-144.09;100.00
8890;BME280;4481;43.406;24.454;2023-01-29T01:39:37;78641.78;;;-144.09;100.00
8890;BME280;4481;43.406;24.454;2023-01-29T01:42:08;78631.31;;;-144.09;100.00
8890;BME280;4481;43.406;24.454;2023-01-29T01:44:52;78620.84;;;-144.09;100.00
8890;BME280;4481;43.406;24.454;2023-01-29T01:47:19;78618.78;;;-144.09;100.00
8890;BME280;4481;43.406;24.454;2023-01-29T01:49:47;78622.94;;;-144.09;100.00
8890;BME280;4481;43.406;24.454;2023-01-29T01:52:14;78629.22;;;-144.09;100.00
8890;BME280;4481;43.406;24.454;2023-01-29T01:54:41;78606.22;;;-144.09;100.00
8890;BME280;4481;43.406;24.454;2023-01-29T01:57:10;78639.69;;;-144.09;100.00
8890;BME280;4481;43.406;24.454;2023-01-29T01:59:42;78650.13;;;-144.09;100.00
8890;BME280;4481;43.406;24.454;2023-01-29T02:02:11;78666.84;;;-144.09;100.00
8890;BME280;4481;43.406;24.454;2023-01-29T02:04:56;78658.50;;;-144.09;100.00
8890;BME280;4481;43.406;24.454;2023-01-29T02:07:42;78656.41;;;-144.09;100.00
8890;BME280;4481;43.406;24.454;2023-01-29T02:10:31;78645.94;;;-144.09;100.00
8890;BME280;4481;43.406;24.454;2023-01-29T02:13:03;78637.59;;;-144.09;100.00
8890;BME280;4481;43.406;24.454;2023-01-29T02:15:29;78650.13;;;-144.09;100.00
8890;BME280;4481;43.406;24.454;2023-01-29T02:17:56;78645.94;;;-144.09;100.00
8890;BME280;4481;43.406;24.454;2023-01-29T02:20:23;78658.50;;;-144.09;100.00
8890;BME280;4481;43.406;24.454;2023-01-29T02:23:04;78656.41;;;-144.09;100.00
8890;BME280;4481;43.406;24.454;2023-01-29T02:28:30;78675.22;;;-144.09;100.00
8890;BME280;4481;43.406;24.454;2023-01-29T02:31:01;78668.94;;;-144.09;100.00
8890;BME280;4481;43.406;24.454;2023-01-29T02:33:40;78645.94;;;-144.09;100.00
8890;BME280;4481;43.406;24.454;2023-01-29T02:36:18;78637.59;;;-144.09;100.00
8890;BME280;4481;43.406;24.454;2023-01-29T02:38:54;78679.41;;;-144.09;100.00
8890;BME280;4481;43.406;24.454;2023-01-29T02:41:25;78677.31;;;-144.09;100.00
8890;BME280;4481;43.406;24.454;2023-01-29T02:43:59;78681.50;;;-144.09;100.00
8890;BME280;4481;43.406;24.454;2023-01-29T02:46:31;78666.84;;;-144.09;100.00
8890;BME280;4481;43.406;24.454;2023-01-29T02:49:07;78675.22;;;-144.09;100.00
8890;BME280;4481;43.406;24.454;2023-01-29T02:51:38;78671.03;;;-144.09;100.00
8890;BME280;4481;43.406;24.454;2023-01-29T02:54:13;78656.41;;;-144.09;100.00
8890;BME280;4481;43.406;24.454;2023-01-29T02:56:45;78679.41;;;-144.09;100.00
8890;BME280;4481;43.406;24.454;2023-01-29T02:59:16;78679.41;;;-144.09;100.00
8890;BME280;4481;43.406;24.454;2023-01-29T03:01:48;78681.50;;;-144.09;100.00
8890;BME280;4481;43.406;24.454;2023-01-29T03:04:20;78685.69;;;-144.09;100.00
8890;BME280;4481;43.406;24.454;2023-01-29T03:06:50;78687.78;;;-144.09;100.00
8890;BME280;4481;43.406;24.454;2023-01-29T03:09:23;78666.84;;;-144.09;100.00
8890;BME280;4481;43.406;24.454;2023-01-29T03:11:54;78681.50;;;-144.09;100.00
8890;BME280;4481;43.406;24.454;2023-01-29T03:14:31;78679.41;;;-144.09;100.00
8890;BME280;4481;43.406;24.454;2023-01-29T03:17:27;78660.59;;;-144.09;100.00
8890;BME280;4481;43.406;24.454;2023-01-29T03:19:57;78685.69;;;-144.09;100.00
8890;BME280;4481;43.406;24.454;2023-01-29T03:22:23;78675.22;;;-144.09;100.00
8890;BME280;4481;43.406;24.454;2023-01-29T03:24:53;78691.94;;;-144.09;100.00
8890;BME280;4481;43.406;24.454;2023-01-29T03:27:41;78700.31;;;-144.09;100.00
8890;BME280;4481;43.406;24.454;2023-01-29T03:30:29;78681.50;;;-144.09;100.00
8890;BME280;4481;43.406;24.454;2023-01-29T03:33:19;78671.03;;;-144.09;100.00
8890;BME280;4481;43.406;24.454;2023-01-29T03:35:49;78675.22;;;-144.09;100.00
8890;BME280;4481;43.406;24.454;2023-01-29T03:38:16;78689.84;;;-144.09;100.00
8890;BME280;4481;43.406;24.454;2023-01-29T03:40:46;78675.22;;;-144.09;100.00
8890;BME280;4481;43.406;24.454;2023-01-29T03:43:23;78681.50;;;-144.09;100.00
8890;BME280;4481;43.406;24.454;2023-01-29T03:46:00;78683.59;;;-144.09;100.00
8890;BME280;4481;43.406;24.454;2023-01-29T03:48:32;78685.69;;;-144.09;100.00
8890;BME280;4481;43.406;24.454;2023-01-29T03:51:10;78689.84;;;-144.09;100.00
8890;BME280;4481;43.406;24.454;2023-01-29T03:53:42;78683.59;;;-144.09;100.00
8890;BME280;4481;43.406;24.454;2023-01-29T03:56:20;78685.69;;;-144.09;100.00
8890;BME280;4481;43.406;24.454;2023-01-29T03:58:51;78679.41;;;-144.09;100.00
8890;BME280;4481;43.406;24.454;2023-01-29T04:01:24;78671.03;;;-144.09;100.00
8890;BME280;4481;43.406;24.454;2023-01-29T04:03:54;78681.50;;;-144.09;100.00
8890;BME280;4481;43.406;24.454;2023-01-29T04:06:25;78679.41;;;-144.09;100.00
8890;BME280;4481;43.406;24.454;2023-01-29T04:08:57;78668.94;;;-144.09;100.00
8890;BME280;4481;43.406;24.454;2023-01-29T04:11:26;78675.22;;;-144.09;100.00
8890;BME280;4481;43.406;24.454;2023-01-29T04:13:55;78677.31;;;-144.09;100.00
8890;BME280;4481;43.406;24.454;2023-01-29T04:16:26;78679.41;;;-144.09;100.00
8890;BME280;4481;43.406;24.454;2023-01-29T04:18:53;78668.94;;;-144.09;100.00
8890;BME280;4481;43.406;24.454;2023-01-29T04:21:20;78660.59;;;-144.09;100.00
8890;BME280;4481;43.406;24.454;2023-01-29T04:23:46;78700.31;;;-144.09;100.00
8890;BME280;4481;43.406;24.454;2023-01-29T04:26:30;78687.78;;;-144.09;100.00
8890;BME280;4481;43.406;24.454;2023-01-29T04:29:08;78683.59;;;-144.09;100.00
8890;BME280;4481;43.406;24.454;2023-01-29T04:31:44;78677.31;;;-144.09;100.00
8890;BME280;4481;43.406;24.454;2023-01-29T04:34:19;78677.31;;;-144.09;100.00
8890;BME280;4481;43.406;24.454;2023-01-29T04:36:58;78675.22;;;-144.09;100.00
8890;BME280;4481;43.406;24.454;2023-01-29T04:39:31;78679.41;;;-144.09;100.00
8890;BME280;4481;43.406;24.454;2023-01-29T04:42:05;78700.31;;;-144.09;100.00
8890;BME280;4481;43.406;24.454;2023-01-29T04:44:37;78694.03;;;-144.09;100.00
8890;BME280;4481;43.406;24.454;2023-01-29T04:47:13;78696.13;;;-144.09;100.00
8890;BME280;4481;43.406;24.454;2023-01-29T04:49:45;78691.94;;;-144.09;100.00
8890;BME280;4481;43.406;24.454;2023-01-29T04:52:26;78700.31;;;-144.09;100.00
8890;BME280;4481;43.406;24.454;2023-01-29T04:55:01;78721.22;;;-144.09;100.00
8890;BME280;4481;43.406;24.454;2023-01-29T04:57:33;78727.50;;;-144.09;100.00
8890;BME280;4481;43.406;24.454;2023-01-29T05:00:04;78740.03;;;-144.09;100.00
8890;BME280;4481;43.406;24.454;2023-01-29T05:02:36;78708.69;;;-144.09;100.00
8890;BME280;4481;43.406;24.454;2023-01-29T05:05:03;78706.59;;;-144.09;100.00
8890;BME280;4481;43.406;24.454;2023-01-29T05:07:32;78700.31;;;-144.09;100.00
8890;BME280;4481;43.406;24.454;2023-01-29T05:10:00;78681.50;;;-144.09;100.00
8890;BME280;4481;43.406;24.454;2023-01-29T05:12:28;78708.69;;;-144.09;100.00
8890;BME280;4481;43.406;24.454;2023-01-29T05:14:59;78708.69;;;-144.09;100.00
8890;BME280;4481;43.406;24.454;2023-01-29T05:17:25;78689.84;;;-144.09;100.00
8890;BME280;4481;43.406;24.454;2023-01-29T05:19:54;78700.31;;;-144.09;100.00
8890;BME280;4481;43.406;24.454;2023-01-29T05:22:21;78708.69;;;-144.09;100.00
8890;BME280;4481;43.406;24.454;2023-01-29T05:24:47;78694.03;;;-144.09;100.00
8890;BME280;4481;43.406;24.454;2023-01-29T05:27:17;78679.41;;;-144.09;100.00
8890;BME280;4481;43.406;24.454;2023-01-29T05:30:02;78687.78;;;-144.09;100.00
8890;BME280;4481;43.406;24.454;2023-01-29T05:32:28;78700.31;;;-144.09;100.00
8890;BME280;4481;43.406;24.454;2023-01-29T05:34:55;78698.22;;;-144.09;100.00
8890;BME280;4481;43.406;24.454;2023-01-29T05:37:21;78702.41;;;-144.09;100.00
8890;BME280;4481;43.406;24.454;2023-01-29T05:39:48;78689.84;;;-144.09;100.00
8890;BME280;4481;43.406;24.454;2023-01-29T05:42:14;78689.84;;;-144.09;100.00
8890;BME280;4481;43.406;24.454;2023-01-29T05:44:40;78694.03;;;-144.09;100.00
8890;BME280;4481;43.406;24.454;2023-01-29T05:47:06;78700.31;;;-144.09;100.00
8890;BME280;4481;43.406;24.454;2023-01-29T05:49:32;78712.84;;;-144.09;100.00
8890;BME280;4481;43.406;24.454;2023-01-29T05:51:59;78702.41;;;-144.09;100.00
8890;BME280;4481;43.406;24.454;2023-01-29T05:54:25;78700.31;;;-144.09;100.00
8890;BME280;4481;43.406;24.454;2023-01-29T05:56:51;78687.78;;;-144.09;100.00
8890;BME280;4481;43.406;24.454;2023-01-29T05:59:17;78687.78;;;-144.09;100.00
8890;BME280;4481;43.406;24.454;2023-01-29T06:01:43;78687.78;;;-144.09;100.00
8890;BME280;4481;43.406;24.454;2023-01-29T06:04:09;78677.31;;;-144.09;100.00
8890;BME280;4481;43.406;24.454;2023-01-29T06:06:35;78664.78;;;-144.09;100.00
8890;BME280;4481;43.406;24.454;2023-01-29T06:09:02;78652.22;;;-144.09;100.00
8890;BME280;4481;43.406;24.454;2023-01-29T06:11:28;78675.22;;;-144.09;100.00
8890;BME280;4481;43.406;24.454;2023-01-29T06:13:54;78696.13;;;-144.09;100.00
8890;BME280;4481;43.406;24.454;2023-01-29T06:16:20;78671.03;;;-144.09;100.00
8890;BME280;4481;43.406;24.454;2023-01-29T06:18:46;78700.31;;;-144.09;100.00
8890;BME280;4481;43.406;24.454;2023-01-29T06:21:13;78702.41;;;-144.09;100.00
8890;BME280;4481;43.406;24.454;2023-01-29T06:23:39;78681.50;;;-144.09;100.00
8890;BME280;4481;43.406;24.454;2023-01-29T06:26:07;78687.78;;;-144.09;100.00
8890;BME280;4481;43.406;24.454;2023-01-29T06:28:35;78700.31;;;-144.09;100.00
8890;BME280;4481;43.406;24.454;2023-01-29T06:31:02;78712.84;;;-144.09;100.00
8890;BME280;4481;43.406;24.454;2023-01-29T06:33:29;78706.59;;;-144.09;100.00
8890;BME280;4481;43.406;24.454;2023-01-29T06:35:55;78691.94;;;-144.09;100.00
8890;BME280;4481;43.406;24.454;2023-01-29T06:38:22;78675.22;;;-144.09;100.00
8890;BME280;4481;43.406;24.454;2023-01-29T06:40:48;78666.84;;;-144.09;100.00
8890;BME280;4481;43.406;24.454;2023-01-29T06:43:15;78654.31;;;-144.09;100.00
8890;BME280;4481;43.406;24.454;2023-01-29T06:45:46;78675.22;;;-144.09;100.00
8890;BME280;4481;43.406;24.454;2023-01-29T06:48:12;78664.78;;;-144.09;100.00
8890;BME280;4481;43.406;24.454;2023-01-29T06:50:38;78679.41;;;-144.09;100.00
8890;BME280;4481;43.406;24.454;2023-01-29T06:53:04;78683.59;;;-144.09;100.00
8890;BME280;4481;43.406;24.454;2023-01-29T06:55:30;78691.94;;;-144.09;100.00
8890;BME280;4481;43.406;24.454;2023-01-29T06:57:56;78687.78;;;-144.09;100.00
8890;BME280;4481;43.406;24.454;2023-01-29T07:00:23;78689.84;;;-144.09;100.00
8890;BME280;4481;43.406;24.454;2023-01-29T07:02:49;78687.78;;;-144.09;100.00
8890;BME280;4481;43.406;24.454;2023-01-29T07:05:15;78677.31;;;-144.09;100.00
8890;BME280;4481;43.406;24.454;2023-01-29T07:07:41;78660.59;;;-144.09;100.00
8890;BME280;4481;43.406;24.454;2023-01-29T07:10:08;78660.59;;;-144.09;100.00
8890;BME280;4481;43.406;24.454;2023-01-29T07:12:35;78679.41;;;-144.09;100.00
8890;BME280;4481;43.406;24.454;2023-01-29T07:15:01;78652.22;;;-144.09;100.00
8890;BME280;4481;43.406;24.454;2023-01-29T07:17:27;78666.84;;;-144.09;100.00
8890;BME280;4481;43.406;24.454;2023-01-29T07:19:53;78650.13;;;-144.09;100.00
8890;BME280;4481;43.406;24.454;2023-01-29T07:22:19;78658.50;;;-144.09;100.00
8890;BME280;4481;43.406;24.454;2023-01-29T07:24:45;78633.41;;;-144.09;100.00
8890;BME280;4481;43.406;24.454;2023-01-29T07:27:12;78643.84;;;-144.09;100.00
8890;BME280;4481;43.406;24.454;2023-01-29T07:29:38;78618.78;;;-144.09;100.00
8890;BME280;4481;43.406;24.454;2023-01-29T07:32:04;78602.03;;;-144.09;100.00
8890;BME280;4481;43.406;24.454;2023-01-29T07:34:32;78616.69;;;-144.09;100.00
8890;BME280;4481;43.406;24.454;2023-01-29T07:36:59;78585.31;;;-144.09;100.00
8890;BME280;4481;43.406;24.454;2023-01-29T07:39:25;78560.22;;;-144.09;100.00
8890;BME280;4481;43.406;24.454;2023-01-29T07:41:51;78530.97;;;-144.09;100.00
8890;BME280;4481;43.406;24.454;2023-01-29T07:44:17;78530.97;;;-144.09;100.00
8890;BME280;4481;43.406;24.454;2023-01-29T07:46:43;78524.69;;;-144.09;100.00
8890;BME280;4481;43.406;24.454;2023-01-29T07:49:09;78518.41;;;-144.09;100.00
8890;BME280;4481;43.406;24.454;2023-01-29T07:51:36;78537.22;;;-144.09;100.00
8890;BME280;4481;43.406;24.454;2023-01-29T07:54:02;78543.50;;;-144.09;100.00
8890;BME280;4481;43.406;24.454;2023-01-29T07:56:28;78545.59;;;-144.09;100.00
8890;BME280;4481;43.406;24.454;2023-01-29T07:58:54;78574.88;;;-144.09;100.00
8890;BME280;4481;43.406;24.454;2023-01-29T08:01:20;78585.31;;;-144.09;100.00
8890;BME280;4481;43.406;24.454;2023-01-29T08:03:46;78562.31;;;-144.09;100.00
8890;BME280;4481;43.406;24.454;2023-01-29T08:06:12;78541.41;;;-144.09;100.00
8890;BME280;4481;43.406;24.454;2023-01-29T08:08:39;78545.59;;;-144.09;100.00
8890;BME280;4481;43.406;24.454;2023-01-29T08:11:05;78516.31;;;-144.09;100.00
8890;BME280;4481;43.406;24.454;2023-01-29T08:13:32;78535.13;;;-144.09;100.00
8890;BME280;4481;43.406;24.454;2023-01-29T08:15:59;78520.50;;;-144.09;100.00
8890;BME280;4481;43.406;24.454;2023-01-29T08:18:25;78491.22;;;-144.09;100.00
8890;BME280;4481;43.406;24.454;2023-01-29T08:20:52;78491.22;;;-144.09;100.00
8890;BME280;4481;43.406;24.454;2023-01-29T08:23:18;78495.41;;;-144.09;100.00
8890;BME280;4481;43.406;24.454;2023-01-29T08:25:45;78480.78;;;-144.09;100.00
8890;BME280;4481;43.406;24.454;2023-01-29T08:28:11;78505.88;;;-144.09;100.00
8890;BME280;4481;43.406;24.454;2023-01-29T08:30:37;78518.41;;;-144.09;100.00
8890;BME280;4481;43.406;24.454;2023-01-29T08:33:04;78501.69;;;-144.09;100.00
8890;BME280;4481;43.406;24.454;2023-01-29T08:35:30;78482.88;;;-144.09;100.00
8890;BME280;4481;43.406;24.454;2023-01-29T08:37:58;78468.25;;;-144.09;100.00
8890;BME280;4481;43.406;24.454;2023-01-29T08:40:25;78449.41;;;-144.09;100.00
8890;BME280;4481;43.406;24.454;2023-01-29T08:42:52;78407.59;;;-144.09;100.00
8890;BME280;4481;43.406;24.454;2023-01-29T08:45:22;78395.06;;;-144.09;100.00
8890;BME280;4481;43.406;24.454;2023-01-29T08:47:49;78382.50;;;-144.09;100.00
8890;BME280;4481;43.406;24.454;2023-01-29T08:50:16;78397.16;;;-144.09;100.00
8890;BME280;4481;43.406;24.454;2023-01-29T08:52:42;78376.25;;;-144.09;100.00
8890;BME280;4481;43.406;24.454;2023-01-29T08:55:09;78401.34;;;-144.09;100.00
8890;BME280;4481;43.406;24.454;2023-01-29T08:57:36;78395.06;;;-144.09;100.00
8890;BME280;4481;43.406;24.454;2023-01-29T09:00:04;78372.06;;;-144.09;100.00
8890;BME280;4481;43.406;24.454;2023-01-29T09:02:30;78386.69;;;-144.09;100.00
8890;BME280;4481;43.406;24.454;2023-01-29T09:04:56;78357.44;;;-144.09;100.00
8890;BME280;4481;43.406;24.454;2023-01-29T09:07:22;78338.63;;;-144.09;100.00
8890;BME280;4481;43.406;24.454;2023-01-29T09:09:48;78332.34;;;-144.09;100.00
8890;BME280;4481;43.406;24.454;2023-01-29T09:12:14;78290.53;;;-144.09;100.00
8890;BME280;4481;43.406;24.454;2023-01-29T09:14:40;78292.63;;;-144.09;100.00
8890;BME280;4481;43.406;24.454;2023-01-29T09:17:07;78313.53;;;-144.09;99.68
8890;BME280;4481;43.406;24.454;2023-01-29T09:19:33;78328.16;;;-144.09;99.75
8890;BME280;4481;43.406;24.454;2023-01-29T09:21:59;78342.78;;;-144.09;100.00
8890;BME280;4481;43.406;24.454;2023-01-29T09:24:25;78359.53;;;-144.09;100.00
8890;BME280;4481;43.406;24.454;2023-01-29T09:26:51;78397.16;;;-144.09;100.00
8890;BME280;4481;43.406;24.454;2023-01-29T09:29:17;78361.59;;;-144.09;100.00
8890;BME280;4481;43.406;24.454;2023-01-29T09:31:43;78338.63;;;-144.09;100.00
8890;BME280;4481;43.406;24.454;2023-01-29T09:34:10;78342.78;;;-144.09;100.00
8890;BME280;4481;43.406;24.454;2023-01-29T09:36:36;78336.53;;;-144.09;100.00
8890;BME280;4481;43.406;24.454;2023-01-29T09:39:02;78349.06;;;-144.09;100.00
8890;BME280;4481;43.406;24.454;2023-01-29T09:41:38;78390.88;;;-144.09;100.00
8890;BME280;4481;43.406;24.454;2023-01-29T09:44:14;78382.50;;;-144.09;100.00
8890;BME280;4481;43.406;24.454;2023-01-29T09:46:43;78346.97;;;-144.09;100.00
8890;BME280;4481;43.406;24.454;2023-01-29T09:49:17;78349.06;;;-144.09;100.00
8890;BME280;4481;43.406;24.454;2023-01-29T09:51:48;78336.53;;;-144.09;100.00
8890;BME280;4481;43.406;24.454;2023-01-29T09:54:22;78353.25;;;-144.09;100.00
8890;BME280;4481;43.406;24.454;2023-01-29T09:56:52;78357.44;;;-144.09;100.00
8890;BME280;4481;43.406;24.454;2023-01-29T09:59:21;78382.50;;;-144.09;100.00
8890;BME280;4481;43.406;24.454;2023-01-29T10:01:54;78399.25;;;-144.09;100.00
8890;BME280;4481;43.406;24.454;2023-01-29T10:04:44;78415.97;;;-144.09;100.00
8890;BME280;4481;43.406;24.454;2023-01-29T10:07:25;78424.31;;;-144.09;100.00
8890;BME280;4481;43.406;24.454;2023-01-29T10:10:16;78395.06;;;-144.09;100.00
8890;BME280;4481;43.406;24.454;2023-01-29T10:12:56;78382.50;;;-144.09;100.00
8890;BME280;4481;43.406;24.454;2023-01-29T10:15:33;78349.06;;;-144.09;100.00
8890;BME280;4481;43.406;24.454;2023-01-29T10:18:25;78321.88;;;-144.09;100.00
8890;BME280;4481;43.406;24.454;2023-01-29T10:21:05;78286.34;;;-144.09;100.00
8890;BME280;4481;43.406;24.454;2023-01-29T10:23:38;78307.25;;;-144.09;100.00
8890;BME280;4481;43.406;24.454;2023-01-29T10:26:09;78257.06;;;-144.09;100.00
8890;BME280;4481;43.406;24.454;2023-01-29T10:28:41;78240.34;;;-144.09;99.78
8890;BME280;4481;43.406;24.454;2023-01-29T10:31:13;78298.88;;;-144.09;99.84
8890;BME280;4481;43.406;24.454;2023-01-29T10:33:46;78292.63;;;-144.09;99.33
8890;BME280;4481;43.406;24.454;2023-01-29T10:36:20;78277.97;;;-144.09;99.51
8890;BME280;4481;43.406;24.454;2023-01-29T10:38:49;78286.34;;;-144.09;99.40
8890;BME280;4481;43.406;24.454;2023-01-29T10:41:29;78290.53;;;-144.09;99.79
8890;BME280;4481;43.406;24.454;2023-01-29T10:44:11;78317.72;;;-144.09;99.50
8890;BME280;4481;43.406;24.454;2023-01-29T10:46:52;78290.53;;;-144.09;100.00
8890;BME280;4481;43.406;24.454;2023-01-29T10:49:36;78282.16;;;-144.09;99.05
8890;BME280;4481;43.406;24.454;2023-01-29T10:52:20;78315.63;;;-144.09;99.62
8890;BME280;4481;43.406;24.454;2023-01-29T10:55:00;78296.81;;;-144.09;99.22
8890;BME280;4481;43.406;24.454;2023-01-29T10:57:41;78267.53;;;-144.09;98.33
8890;BME280;4481;43.406;24.454;2023-01-29T11:00:16;78248.72;;;-144.09;97.75
8890;BME280;4481;43.406;24.454;2023-01-29T11:02:44;78261.25;;;-144.09;98.52
8890;BME280;4481;43.406;24.454;2023-01-29T11:05:18;78273.81;;;-144.09;99.01
8890;BME280;4481;43.406;24.454;2023-01-29T11:07:47;78261.25;;;-144.09;98.90
8890;BME280;4481;43.406;24.454;2023-01-29T11:10:16;78277.97;;;-144.09;100.00
8890;BME280;4481;43.406;24.454;2023-01-29T11:12:44;78263.34;;;-144.09;99.62
8890;BME280;4481;43.406;24.454;2023-01-29T11:15:16;78261.25;;;-144.09;99.82
8890;BME280;4481;43.406;24.454;2023-01-29T11:18:01;78236.16;;;-144.09;99.49
8890;BME280;4481;43.406;24.454;2023-01-29T11:20:29;78273.81;;;-144.09;98.67
8890;BME280;4481;43.406;24.454;2023-01-29T11:22:56;78267.53;;;-144.09;99.19
8890;BME280;4481;43.406;24.454;2023-01-29T11:25:24;78271.72;;;-144.09;100.00
8890;BME280;4481;43.406;24.454;2023-01-29T11:27:52;78280.06;;;-144.09;99.70
8890;BME280;4481;43.406;24.454;2023-01-29T11:30:22;78275.91;;;-144.09;100.00
8890;BME280;4481;43.406;24.454;2023-01-29T11:32:51;78259.16;;;-144.09;100.00
8890;BME280;4481;43.406;24.454;2023-01-29T11:35:23;78244.53;;;-144.09;98.90
8890;BME280;4481;43.406;24.454;2023-01-29T11:37:50;78240.34;;;-144.09;99.08
8890;BME280;4481;43.406;24.454;2023-01-29T11:40:36;78244.53;;;-144.09;100.00
8890;BME280;4481;43.406;24.454;2023-01-29T11:43:21;78221.53;;;-144.09;99.57
8890;BME280;4481;43.406;24.454;2023-01-29T11:45:49;78204.81;;;-144.09;97.81
8890;BME280;4481;43.406;24.454;2023-01-29T11:48:17;78211.09;;;-144.09;98.31
8890;BME280;4481;43.406;24.454;2023-01-29T11:50:51;78248.72;;;-144.09;100.00
8890;BME280;4481;43.406;24.454;2023-01-29T11:53:33;78211.09;;;-144.09;99.75
8890;BME280;4481;43.406;24.454;2023-01-29T11:56:02;78206.91;;;-144.09;98.70
8890;BME280;4481;43.406;24.454;2023-01-29T11:58:32;78183.91;;;-144.09;98.22
8890;BME280;4481;43.406;24.454;2023-01-29T12:00:59;78154.63;;;-144.09;97.86
8890;BME280;4481;43.406;24.454;2023-01-29T12:03:32;78198.53;;;-144.09;98.36
8890;BME280;4481;43.406;24.454;2023-01-29T12:06:02;78202.72;;;-144.09;97.84
8890;BME280;4481;43.406;24.454;2023-01-29T12:08:34;78211.09;;;-144.09;98.12
8890;BME280;4481;43.406;24.454;2023-01-29T12:11:10;78223.63;;;-144.09;98.96
8890;BME280;4481;43.406;24.454;2023-01-29T12:13:37;78211.09;;;-144.09;98.51
8890;BME280;4481;43.406;24.454;2023-01-29T12:16:13;78211.09;;;-144.09;99.15
8890;BME280;4481;43.406;24.454;2023-01-29T12:18:44;78175.53;;;-144.09;98.90
8890;BME280;4481;43.406;24.454;2023-01-29T12:21:16;78142.09;;;-144.09;97.29
8890;BME280;4481;43.406;24.454;2023-01-29T12:23:48;78154.63;;;-144.09;97.92
8890;BME280;4481;43.406;24.454;2023-01-29T12:26:23;78158.81;;;-144.09;98.06
8890;BME280;4481;43.406;24.454;2023-01-29T12:28:54;78152.56;;;-144.09;98.52
8890;BME280;4481;43.406;24.454;2023-01-29T12:31:28;78119.09;;;-144.09;96.38
8890;BME280;4481;43.406;24.454;2023-01-29T12:34:03;78156.72;;;-144.09;97.50
8890;BME280;4481;43.406;24.454;2023-01-29T12:36:35;78158.81;;;-144.09;96.95
8890;BME280;4481;43.406;24.454;2023-01-29T12:39:05;78144.19;;;-144.09;96.66
8890;BME280;4481;43.406;24.454;2023-01-29T12:41:36;78156.72;;;-144.09;97.36
8890;BME280;4481;43.406;24.454;2023-01-29T12:44:10;78150.47;;;-144.09;97.12
8890;BME280;4481;43.406;24.454;2023-01-29T12:46:42;78183.91;;;-144.09;98.00
8890;BME280;4481;43.406;24.454;2023-01-29T12:49:14;78160.91;;;-144.09;97.40
8890;BME280;4481;43.406;24.454;2023-01-29T12:51:48;78144.19;;;-144.09;97.15
8890;BME280;4481;43.406;24.454;2023-01-29T12:54:20;78150.47;;;-144.09;97.62
8890;BME280;4481;43.406;24.454;2023-01-29T12:56:50;78123.28;;;-144.09;97.14
8890;BME280;4481;43.406;24.454;2023-01-29T12:59:23;78135.81;;;-144.09;96.58
8890;BME280;4481;43.406;24.454;2023-01-29T13:01:53;78137.91;;;-144.09;97.34